createdAt,value
2023-05-10T00:01:37.630Z,8.90
2023-05-10T00:04:30.441Z,7.81
2023-05-10T00:07:23.099Z,6.82
2023-05-10T00:10:07.663Z,6.11
2023-05-10T00:13:00.705Z,5.51
2023-05-10T00:15:53.459Z,5.03
2023-05-10T00:18:36.049Z,4.72
2023-05-10T00:21:29.398Z,4.68
2023-05-10T00:24:16.103Z,4.66
2023-05-10T00:27:01.737Z,4.59
2023-05-10T00:29:54.556Z,4.50
2023-05-10T00:32:49.328Z,4.42
2023-05-10T00:35:42.053Z,4.37
2023-05-10T00:38:34.856Z,4.30
2023-05-10T00:41:28.155Z,4.26
2023-05-10T00:44:21.073Z,4.24
2023-05-10T00:47:14.484Z,4.19
2023-05-10T00:50:07.666Z,4.15
2023-05-10T00:53:01.985Z,4.13
2023-05-10T00:55:46.660Z,4.11
2023-05-10T00:58:40.906Z,4.07
2023-05-10T01:01:27.603Z,4.04
2023-05-10T01:04:21.321Z,4.00
2023-05-10T01:07:07.444Z,3.96
2023-05-10T01:09:47.470Z,3.95
2023-05-10T01:12:45.252Z,3.93
2023-05-10T01:15:39.053Z,3.90
2023-05-10T01:18:27.088Z,3.87
2023-05-10T01:21:25.825Z,3.85
2023-05-10T01:25:02.911Z,3.84
2023-05-10T01:28:16.932Z,3.82
2023-05-10T01:31:25.464Z,3.79
2023-05-10T01:34:29.665Z,3.77
2023-05-10T01:37:27.775Z,3.77
2023-05-10T01:40:28.581Z,3.78
2023-05-10T01:43:25.392Z,3.77
2023-05-10T01:46:23.349Z,3.79
2023-05-10T01:49:25.758Z,3.76
2023-05-10T01:52:22.236Z,3.71
2023-05-10T01:55:19.176Z,3.69
2023-05-10T01:58:12.424Z,3.67
2023-05-10T02:00:56.782Z,3.62
2023-05-10T02:03:44.084Z,3.61
2023-05-10T02:06:28.815Z,3.60
2023-05-10T02:09:02.750Z,3.58
2023-05-10T02:11:56.456Z,3.58
2023-05-10T02:14:49.964Z,3.56
2023-05-10T02:17:44.447Z,3.54
2023-05-10T02:20:38.584Z,3.53
2023-05-10T02:23:32.650Z,3.53
2023-05-10T02:26:16.228Z,3.54
2023-05-10T02:29:13.573Z,3.54
2023-05-10T02:32:02.525Z,3.54
2023-05-10T02:34:57.110Z,3.53
2023-05-10T02:37:51.038Z,3.51
2023-05-10T02:40:46.745Z,3.49
2023-05-10T02:43:40.634Z,3.47
2023-05-10T02:46:35.343Z,3.45
2023-05-10T02:49:28.460Z,3.43
2023-05-10T02:52:14.082Z,3.42
2023-05-10T02:55:11.680Z,3.39
2023-05-10T02:58:05.583Z,3.39
2023-05-10T03:00:57.967Z,3.39
2023-05-10T03:03:54.051Z,3.36
2023-05-10T03:06:47.286Z,3.34
2023-05-10T03:09:40.378Z,3.34
2023-05-10T03:12:49.578Z,3.35
2023-05-10T03:15:50.315Z,3.37
2023-05-10T03:18:47.099Z,3.39
2023-05-10T03:21:44.295Z,3.42
2023-05-10T03:24:41.358Z,3.45
2023-05-10T03:27:36.446Z,3.50
2023-05-10T03:30:22.810Z,3.54
2023-05-10T03:33:15.639Z,3.59
2023-05-10T03:36:09.103Z,3.66
2023-05-10T03:39:03.900Z,3.73
2023-05-10T03:41:56.737Z,3.82
2023-05-10T03:44:50.258Z,3.92
2023-05-10T03:47:25.506Z,4.02
2023-05-10T03:50:20.265Z,4.13
2023-05-10T03:53:13.405Z,4.23
2023-05-10T03:56:07.587Z,4.32
2023-05-10T03:59:00.539Z,4.41
2023-05-10T04:01:53.538Z,4.51
2023-05-10T04:04:46.554Z,4.61
2023-05-10T04:07:39.936Z,4.70
2023-05-10T04:10:32.504Z,4.81
2023-05-10T04:13:29.006Z,4.91
2023-05-10T04:16:20.807Z,5.01
2023-05-10T04:19:16.066Z,5.11
2023-05-10T04:22:09.673Z,5.25
2023-05-10T04:25:01.584Z,5.40
2023-05-10T04:27:54.483Z,5.54
2023-05-10T04:30:39.966Z,5.74
2023-05-10T04:33:32.817Z,6.45
2023-05-10T04:36:26.526Z,7.87
2023-05-10T04:39:05.039Z,8.71
2023-05-10T04:41:57.576Z,9.59
2023-05-10T04:44:50.309Z,10.74
2023-05-10T04:47:42.935Z,11.78
2023-05-10T04:50:22.308Z,12.66
2023-05-10T04:53:15.990Z,13.67
2023-05-10T04:56:11.006Z,14.60
2023-05-10T04:59:03.831Z,15.13
2023-05-10T05:01:41.706Z,15.57
2023-05-10T05:04:35.251Z,15.83
2023-05-10T05:07:28.203Z,15.19
2023-05-10T05:10:21.116Z,13.83
2023-05-10T05:13:04.761Z,12.66
2023-05-10T05:15:58.520Z,11.75
2023-05-10T05:18:51.237Z,11.09
2023-05-10T05:21:44.571Z,10.65
2023-05-10T05:24:20.165Z,10.35
2023-05-10T05:27:13.244Z,10.15
2023-05-10T05:30:07.005Z,10.05
2023-05-10T05:32:59.900Z,9.94
2023-05-10T05:35:52.814Z,9.90
2023-05-10T05:38:35.341Z,9.88
2023-05-10T05:41:28.013Z,9.84
2023-05-10T05:44:13.216Z,9.82
2023-05-10T05:47:08.346Z,9.92
2023-05-10T05:49:59.715Z,10.05
2023-05-10T05:52:52.550Z,10.19
2023-05-10T05:56:06.206Z,10.33
2023-05-10T05:58:59.056Z,10.58
2023-05-10T06:01:53.160Z,10.80
2023-05-10T06:04:49.048Z,11.01
2023-05-10T06:07:45.110Z,11.29
2023-05-10T06:10:37.942Z,11.56
2023-05-10T06:13:33.845Z,11.80
2023-05-10T06:16:12.284Z,12.02
2023-05-10T06:19:05.368Z,12.22
2023-05-10T06:21:58.627Z,12.42
2023-05-10T06:24:34.319Z,12.62
2023-05-10T06:27:10.291Z,12.84
2023-05-10T06:29:56.475Z,13.05
2023-05-10T06:32:37.239Z,13.15
2023-05-10T06:35:32.487Z,13.22
2023-05-10T06:38:25.363Z,13.32
2023-05-10T06:41:18.574Z,13.36
2023-05-10T06:44:11.657Z,13.44
2023-05-10T06:47:05.933Z,13.60
2023-05-10T06:49:58.751Z,13.81
2023-05-10T06:52:41.451Z,13.97
2023-05-10T06:55:24.948Z,14.08
2023-05-10T06:58:00.478Z,14.14
2023-05-10T07:00:46.700Z,14.22
2023-05-10T07:03:29.139Z,14.33
2023-05-10T07:06:32.423Z,14.42
2023-05-10T07:09:26.722Z,14.48
2023-05-10T07:12:19.716Z,14.52
2023-05-10T07:15:13.774Z,14.59
2023-05-10T07:18:08.275Z,14.65
2023-05-10T07:21:01.032Z,14.70
2023-05-10T07:23:45.291Z,14.77
2023-05-10T07:26:38.409Z,14.85
2023-05-10T07:29:31.322Z,14.89
2023-05-10T07:32:24.757Z,14.95
2023-05-10T07:35:18.082Z,15.08
2023-05-10T07:37:50.780Z,15.17
2023-05-10T07:40:33.976Z,15.30
2023-05-10T07:43:18.996Z,15.45
2023-05-10T07:46:04.988Z,15.56
2023-05-10T07:48:57.690Z,15.63
2023-05-10T07:51:51.729Z,15.65
2023-05-10T07:54:44.653Z,15.66
2023-05-10T07:57:38.488Z,15.76
2023-05-10T08:00:23.226Z,15.85
2023-05-10T08:03:01.137Z,15.94
2023-05-10T08:05:35.704Z,16.03
2023-05-10T08:08:28.687Z,16.13
2023-05-10T08:11:22.563Z,16.12
2023-05-10T08:14:35.172Z,16.11
2023-05-10T08:17:28.636Z,16.16
2023-05-10T08:20:21.939Z,16.20
2023-05-10T08:23:18.360Z,16.16
2023-05-10T08:26:11.272Z,16.11
2023-05-10T08:29:05.125Z,16.08
2023-05-10T08:31:58.086Z,16.09
2023-05-10T08:34:53.319Z,16.10
2023-05-10T08:37:45.176Z,16.11
2023-05-10T08:40:39.148Z,16.18
2023-05-10T08:43:33.995Z,16.21
2023-05-10T08:46:28.816Z,16.26
2023-05-10T08:49:23.976Z,16.32
2023-05-10T08:52:10.036Z,16.41
2023-05-10T08:55:03.054Z,16.47
2023-05-10T08:57:58.087Z,16.51
2023-05-10T09:00:51.917Z,16.60
2023-05-10T09:03:45.685Z,16.71
2023-05-10T09:06:39.053Z,16.88
2023-05-10T09:09:32.393Z,16.96
2023-05-10T09:12:05.873Z,16.97
2023-05-10T09:14:52.966Z,16.97
2023-05-10T09:17:30.592Z,16.99
2023-05-10T09:20:23.645Z,17.00
2023-05-10T09:23:17.099Z,16.98
2023-05-10T09:26:10.173Z,17.02
2023-05-10T09:29:06.089Z,17.03
2023-05-10T09:31:58.767Z,17.06
2023-05-10T09:34:53.495Z,17.09
2023-05-10T09:37:50.735Z,17.15
2023-05-10T09:40:55.566Z,17.21
2023-05-10T09:43:48.670Z,17.25
2023-05-10T09:46:41.426Z,17.27
2023-05-10T09:49:24.587Z,17.25
2023-05-10T09:52:17.569Z,17.24
2023-05-10T09:55:00.408Z,17.28
2023-05-10T09:57:35.161Z,17.29
2023-05-10T10:00:13.595Z,17.27
2023-05-10T10:02:47.229Z,17.27
2023-05-10T10:05:33.876Z,17.28
2023-05-10T10:08:07.730Z,17.31
2023-05-10T10:10:41.508Z,17.35
2023-05-10T10:13:35.604Z,17.46
2023-05-10T10:16:12.280Z,17.50
2023-05-10T10:18:47.561Z,17.54
2023-05-10T10:21:24.024Z,17.54
2023-05-10T10:23:57.034Z,17.60
2023-05-10T10:26:32.907Z,17.66
2023-05-10T10:29:19.469Z,17.70
2023-05-10T10:31:59.982Z,17.71
2023-05-10T10:34:33.655Z,17.69
2023-05-10T10:37:09.964Z,17.75
2023-05-10T10:39:42.661Z,17.83
2023-05-10T10:42:37.878Z,17.86
2023-05-10T10:45:20.521Z,17.86
2023-05-10T10:48:27.463Z,17.87
2023-05-10T10:51:21.270Z,17.90
2023-05-10T10:54:13.568Z,17.97
2023-05-10T10:57:17.180Z,18.07
2023-05-10T11:00:32.163Z,18.21
2023-05-10T11:03:26.543Z,18.35
2023-05-10T11:06:34.729Z,18.47
2023-05-10T11:09:28.693Z,18.64
2023-05-10T11:12:22.125Z,18.75
2023-05-10T11:15:15.147Z,18.91
2023-05-10T11:18:21.788Z,19.05
2023-05-10T11:21:13.082Z,19.03
2023-05-10T11:24:19.515Z,18.96
2023-05-10T11:27:15.553Z,19.01
2023-05-10T11:30:12.392Z,19.10
2023-05-10T11:32:58.291Z,19.13
2023-05-10T11:35:51.578Z,19.17
2023-05-10T11:38:45.174Z,19.23
2023-05-10T11:41:36.672Z,19.15
2023-05-10T11:44:33.654Z,19.02
2023-05-10T11:47:26.593Z,18.78
2023-05-10T11:50:19.918Z,18.54
2023-05-10T11:53:03.116Z,18.54
2023-05-10T11:55:56.690Z,18.67
2023-05-10T11:58:43.033Z,18.77
2023-05-10T12:01:36.210Z,18.84
2023-05-10T12:04:30.634Z,18.91
2023-05-10T12:07:23.586Z,18.87
2023-05-10T12:10:19.223Z,18.70
2023-05-10T12:13:17.152Z,18.50
2023-05-10T12:16:19.009Z,18.43
2023-05-10T12:19:11.947Z,18.51
2023-05-10T12:22:08.806Z,18.67
2023-05-10T12:25:02.830Z,18.83
2023-05-10T12:27:39.101Z,18.89
2023-05-10T12:30:33.324Z,18.96
2023-05-10T12:33:10.801Z,19.03
2023-05-10T12:36:04.808Z,19.03
2023-05-10T12:39:20.107Z,18.95
2023-05-10T12:42:13.395Z,18.80
2023-05-10T12:45:01.080Z,18.78
2023-05-10T12:47:54.131Z,18.86
2023-05-10T12:50:46.905Z,19.04
2023-05-10T12:53:41.493Z,19.25
2023-05-10T12:56:36.245Z,19.42
2023-05-10T12:59:28.964Z,19.50
2023-05-10T13:02:23.478Z,19.58
2023-05-10T13:05:16.558Z,19.64
2023-05-10T13:08:11.037Z,19.65
2023-05-10T13:11:05.298Z,19.64
2023-05-10T13:13:59.430Z,19.70
2023-05-10T13:16:52.195Z,19.78
2023-05-10T13:19:47.798Z,19.79
2023-05-10T13:22:40.885Z,19.84
2023-05-10T13:25:36.091Z,19.93
2023-05-10T13:28:28.813Z,19.97
2023-05-10T13:31:23.967Z,19.99
2023-05-10T13:34:16.590Z,20.01
2023-05-10T13:37:11.637Z,20.04
2023-05-10T13:40:05.264Z,20.05
2023-05-10T13:42:59.092Z,20.07
2023-05-10T13:45:52.359Z,20.09
2023-05-10T13:48:39.079Z,20.02
2023-05-10T13:51:32.696Z,19.91
2023-05-10T13:54:26.393Z,19.87
2023-05-10T13:57:13.959Z,19.74
2023-05-10T14:00:07.996Z,19.66
2023-05-10T14:02:53.769Z,19.63
2023-05-10T14:05:39.600Z,19.65
2023-05-10T14:08:12.060Z,19.62
2023-05-10T14:11:05.052Z,19.54
2023-05-10T14:13:58.159Z,19.49
2023-05-10T14:16:51.265Z,19.37
2023-05-10T14:19:44.625Z,19.29
2023-05-10T14:22:37.815Z,19.31
2023-05-10T14:25:20.879Z,19.29
2023-05-10T14:28:14.434Z,19.28
2023-05-10T14:30:50.835Z,19.29
2023-05-10T14:33:43.951Z,19.33
2023-05-10T14:36:28.350Z,19.35
2023-05-10T14:39:21.289Z,19.34
2023-05-10T14:42:15.943Z,19.38
2023-05-10T14:44:58.478Z,19.30
2023-05-10T14:47:52.059Z,19.23
2023-05-10T14:50:36.519Z,19.12
2023-05-10T14:53:10.416Z,19.05
2023-05-10T14:55:43.605Z,18.95
2023-05-10T14:58:18.055Z,18.86
2023-05-10T15:00:50.734Z,18.86
2023-05-10T15:03:27.279Z,18.89
2023-05-10T15:06:11.961Z,18.88
2023-05-10T15:09:05.631Z,18.80
2023-05-10T15:11:48.312Z,18.75
2023-05-10T15:14:41.542Z,18.83
2023-05-10T15:17:34.985Z,18.86
2023-05-10T15:20:27.845Z,18.81
2023-05-10T15:23:07.788Z,18.71
2023-05-10T15:26:01.692Z,18.64
2023-05-10T15:28:47.422Z,18.56
2023-05-10T15:31:30.256Z,18.51
2023-05-10T15:34:03.240Z,18.52
2023-05-10T15:36:37.099Z,18.56
2023-05-10T15:39:15.035Z,18.65
2023-05-10T15:41:57.029Z,18.78
2023-05-10T15:44:51.332Z,18.85
2023-05-10T15:47:24.243Z,18.86
2023-05-10T15:50:18.160Z,18.85
2023-05-10T15:53:10.908Z,18.80
2023-05-10T15:55:43.200Z,18.75
2023-05-10T15:58:38.581Z,18.66
2023-05-10T16:01:21.436Z,18.53
2023-05-10T16:03:56.502Z,18.44
2023-05-10T16:06:50.736Z,18.39
2023-05-10T16:09:44.076Z,18.35
2023-05-10T16:12:26.085Z,18.43
2023-05-10T16:15:13.611Z,18.73
2023-05-10T16:17:49.627Z,19.10
2023-05-10T16:20:45.749Z,19.46
2023-05-10T16:23:18.436Z,19.71
2023-05-10T16:25:54.782Z,19.95
2023-05-10T16:28:27.398Z,20.24
2023-05-10T16:31:20.899Z,20.56
2023-05-10T16:33:53.725Z,20.80
2023-05-10T16:36:40.663Z,20.92
2023-05-10T16:39:24.474Z,20.87
2023-05-10T16:42:17.636Z,20.90
2023-05-10T16:44:50.985Z,21.04
2023-05-10T16:47:44.558Z,21.21
2023-05-10T16:50:31.326Z,21.21
2023-05-10T16:53:05.985Z,21.14
2023-05-10T16:55:47.857Z,21.01
2023-05-10T16:58:40.710Z,20.90
2023-05-10T17:01:13.572Z,20.97
2023-05-10T17:03:49.164Z,21.05
2023-05-10T17:06:42.192Z,20.89
2023-05-10T17:09:35.059Z,20.27
2023-05-10T17:12:11.280Z,19.59
2023-05-10T17:14:47.030Z,18.93
2023-05-10T17:17:39.786Z,18.22
2023-05-10T17:20:32.548Z,17.65
2023-05-10T17:23:10.652Z,17.20
2023-05-10T17:25:46.576Z,16.78
2023-05-10T17:28:22.248Z,16.41
2023-05-10T17:31:15.003Z,16.04
2023-05-10T17:34:03.375Z,15.72
2023-05-10T17:36:49.339Z,15.44
2023-05-10T17:39:26.020Z,15.20
2023-05-10T17:42:26.884Z,14.94
2023-05-10T17:45:20.818Z,14.70
2023-05-10T17:48:13.556Z,14.47
2023-05-10T17:50:56.508Z,14.26
2023-05-10T17:53:49.455Z,14.07
2023-05-10T17:56:31.862Z,13.90
2023-05-10T17:59:24.642Z,13.71
2023-05-10T18:01:59.725Z,13.55
2023-05-10T18:04:35.105Z,13.39
2023-05-10T18:07:08.067Z,13.24
2023-05-10T18:09:51.404Z,13.08
2023-05-10T18:12:44.493Z,12.93
2023-05-10T18:15:37.726Z,12.77
2023-05-10T18:18:30.646Z,12.62
2023-05-10T18:21:05.389Z,12.49
2023-05-10T18:23:58.287Z,12.35
2023-05-10T18:26:33.889Z,12.22
2023-05-10T18:29:26.913Z,12.08
2023-05-10T18:32:10.244Z,11.95
2023-05-10T18:34:54.961Z,11.82
2023-05-10T18:37:48.713Z,11.67
2023-05-10T18:40:21.457Z,11.55
2023-05-10T18:43:04.003Z,11.41
2023-05-10T18:45:48.748Z,11.27
2023-05-10T18:48:41.896Z,11.15
2023-05-10T18:51:15.333Z,11.03
2023-05-10T18:53:50.757Z,10.91
2023-05-10T18:56:45.262Z,10.77
2023-05-10T18:59:30.090Z,10.63
2023-05-10T19:02:03.171Z,10.51
2023-05-10T19:04:59.699Z,10.38
2023-05-10T19:07:35.024Z,10.26
2023-05-10T19:10:17.596Z,10.13
2023-05-10T19:13:03.124Z,10.00
2023-05-10T19:15:40.572Z,9.87
2023-05-10T19:18:34.021Z,9.74
2023-05-10T19:21:10.983Z,9.63
2023-05-10T19:23:49.087Z,9.54
2023-05-10T19:26:31.752Z,9.45
2023-05-10T19:29:24.360Z,9.37
2023-05-10T19:32:17.503Z,9.32
2023-05-10T19:35:00.602Z,9.30
2023-05-10T19:37:39.080Z,9.28
2023-05-10T19:40:31.972Z,9.23
2023-05-10T19:43:09.788Z,9.18
2023-05-10T19:45:46.303Z,9.11
2023-05-10T19:48:29.575Z,9.03
2023-05-10T19:51:15.255Z,8.99
2023-05-10T19:54:08.478Z,8.95
2023-05-10T19:57:01.260Z,8.92
2023-05-10T19:59:44.032Z,8.87
2023-05-10T20:02:36.632Z,8.76
2023-05-10T20:05:30.308Z,8.67
2023-05-10T20:08:23.037Z,8.58
2023-05-10T20:11:16.781Z,8.52
2023-05-10T20:14:10.034Z,8.47
2023-05-10T20:17:02.994Z,8.41
2023-05-10T20:19:35.826Z,8.35
2023-05-10T20:22:14.494Z,8.28
2023-05-10T20:24:47.625Z,8.23
2023-05-10T20:27:40.808Z,8.17
2023-05-10T20:30:33.563Z,8.10
2023-05-10T20:33:19.208Z,8.05
2023-05-10T20:36:12.377Z,8.01
2023-05-10T20:39:05.516Z,7.96
2023-05-10T20:41:39.465Z,7.91
2023-05-10T20:44:32.014Z,7.85
2023-05-10T20:47:25.054Z,7.78
2023-05-10T20:50:18.387Z,7.68
2023-05-10T20:53:11.297Z,7.58
2023-05-10T20:56:04.345Z,7.53
2023-05-10T20:58:57.122Z,7.49
2023-05-10T21:01:50.176Z,7.42
2023-05-10T21:04:43.387Z,7.35
2023-05-10T21:07:36.241Z,7.28
2023-05-10T21:10:29.756Z,7.21
2023-05-10T21:13:12.597Z,7.16
2023-05-10T21:16:05.592Z,7.10
2023-05-10T21:18:58.709Z,7.04
2023-05-10T21:21:55.045Z,6.99
2023-05-10T21:24:48.442Z,6.93
2023-05-10T21:27:43.829Z,6.91
2023-05-10T21:30:36.660Z,6.90
2023-05-10T21:33:30.700Z,6.89
2023-05-10T21:36:23.644Z,6.90
2023-05-10T21:39:16.280Z,6.91
2023-05-10T21:42:00.349Z,6.93
2023-05-10T21:44:55.250Z,6.93
2023-05-10T21:47:48.386Z,6.91
2023-05-10T21:50:34.712Z,6.88
2023-05-10T21:53:11.311Z,6.87
2023-05-10T21:56:04.086Z,6.82
2023-05-10T21:58:40.155Z,6.75
2023-05-10T22:01:26.762Z,6.66
2023-05-10T22:04:19.834Z,6.65
2023-05-10T22:07:16.658Z,6.91
2023-05-10T22:09:59.364Z,7.08
2023-05-10T22:12:53.402Z,7.22
2023-05-10T22:15:46.090Z,7.32
2023-05-10T22:18:31.654Z,7.36
2023-05-10T22:21:24.956Z,7.39
2023-05-10T22:24:16.466Z,7.41
2023-05-10T22:27:09.345Z,7.39
2023-05-10T22:30:02.515Z,7.36
2023-05-10T22:32:56.202Z,7.36
2023-05-10T22:35:48.905Z,7.36
2023-05-10T22:38:32.652Z,7.34
2023-05-10T22:41:18.112Z,7.31
2023-05-10T22:44:12.849Z,7.29
2023-05-10T22:47:06.722Z,7.25
2023-05-10T22:50:03.347Z,7.20
2023-05-10T22:52:56.251Z,7.15
2023-05-10T22:55:49.896Z,7.09
2023-05-10T22:58:41.670Z,7.04
2023-05-10T23:01:37.261Z,6.98
2023-05-10T23:04:29.890Z,6.93
2023-05-10T23:07:24.109Z,6.88
2023-05-10T23:09:59.895Z,6.83
2023-05-10T23:12:52.522Z,6.79
2023-05-10T23:15:37.823Z,6.75
2023-05-10T23:18:31.009Z,6.72
2023-05-10T23:21:25.361Z,6.72
2023-05-10T23:24:18.143Z,6.71
2023-05-10T23:27:11.457Z,6.69
2023-05-10T23:30:04.536Z,6.64
2023-05-10T23:32:59.477Z,6.61
2023-05-10T23:35:43.605Z,6.59
2023-05-10T23:38:36.241Z,6.57
2023-05-10T23:41:28.793Z,6.54
2023-05-10T23:44:20.328Z,6.51
2023-05-10T23:47:13.263Z,6.48
2023-05-10T23:49:56.017Z,6.44
2023-05-10T23:52:49.749Z,6.41
2023-05-10T23:55:42.654Z,6.40
2023-05-10T23:58:34.986Z,6.38
